createdAt,value
2022-12-31T00:00:57.705Z,78.32
2022-12-31T00:01:57.760Z,78.41
2022-12-31T00:02:57.817Z,78.46
2022-12-31T00:03:57.651Z,78.49
2022-12-31T00:04:57.646Z,78.52
2022-12-31T00:05:57.644Z,78.53
2022-12-31T00:06:57.614Z,78.65
2022-12-31T00:07:57.608Z,78.70
2022-12-31T00:08:57.595Z,78.72
2022-12-31T00:09:57.588Z,78.73
2022-12-31T00:10:57.590Z,78.70
2022-12-31T00:11:57.560Z,78.66
2022-12-31T00:12:57.550Z,78.70
2022-12-31T00:13:57.539Z,78.70
2022-12-31T00:14:57.540Z,78.69
2022-12-31T00:15:57.526Z,78.77
2022-12-31T00:16:57.551Z,78.81
2022-12-31T00:17:57.501Z,78.82
2022-12-31T00:18:57.479Z,78.79
2022-12-31T00:19:57.486Z,78.71
2022-12-31T00:20:57.490Z,78.69
2022-12-31T00:21:57.462Z,78.77
2022-12-31T00:22:57.456Z,78.73
2022-12-31T00:23:57.440Z,78.78
2022-12-31T00:24:57.430Z,78.82
2022-12-31T00:25:57.422Z,78.76
2022-12-31T00:26:57.409Z,78.79
2022-12-31T00:27:57.391Z,78.71
2022-12-31T00:28:57.387Z,78.72
2022-12-31T00:30:04.134Z,78.69
2022-12-31T00:30:58.386Z,78.69
2022-12-31T00:31:57.338Z,78.69
2022-12-31T00:32:57.328Z,78.70
2022-12-31T00:33:57.323Z,78.75
2022-12-31T00:34:57.300Z,78.78
2022-12-31T00:35:57.308Z,78.83
2022-12-31T00:36:57.283Z,78.84
2022-12-31T00:37:57.276Z,78.86
2022-12-31T00:38:57.265Z,78.85
2022-12-31T00:39:57.269Z,78.98
2022-12-31T00:40:57.275Z,78.98
2022-12-31T00:41:57.238Z,79.07
2022-12-31T00:42:57.221Z,79.03
2022-12-31T00:43:57.220Z,79.12
2022-12-31T00:44:57.211Z,79.14
2022-12-31T00:45:58.088Z,79.12
2022-12-31T00:46:57.202Z,79.19
2022-12-31T00:47:57.169Z,79.21
2022-12-31T00:48:57.155Z,79.10
2022-12-31T00:49:57.148Z,79.13
2022-12-31T00:50:57.146Z,79.17
2022-12-31T00:51:57.113Z,79.19
2022-12-31T00:52:57.124Z,79.25
2022-12-31T00:53:57.107Z,79.20
2022-12-31T00:54:57.082Z,79.20
2022-12-31T00:55:57.089Z,79.22
2022-12-31T00:56:57.079Z,79.20
2022-12-31T00:57:57.049Z,79.21
2022-12-31T00:58:57.039Z,79.21
2022-12-31T00:59:57.028Z,79.15
2022-12-31T01:00:57.125Z,79.09
2022-12-31T01:01:57.143Z,79.11
2022-12-31T01:02:57.067Z,79.00
2022-12-31T01:03:57.017Z,78.98
2022-12-31T01:04:56.990Z,78.90
2022-12-31T01:05:56.980Z,78.87
2022-12-31T01:06:56.963Z,78.77
2022-12-31T01:07:56.946Z,78.75
2022-12-31T01:08:56.936Z,78.73
2022-12-31T01:09:56.927Z,78.62
2022-12-31T01:10:56.919Z,78.55
2022-12-31T01:11:56.898Z,78.53
2022-12-31T01:12:56.889Z,78.51
2022-12-31T01:13:56.891Z,78.64
2022-12-31T01:14:56.885Z,78.76
2022-12-31T01:15:56.891Z,78.88
2022-12-31T01:16:56.876Z,78.95
2022-12-31T01:17:56.831Z,78.99
2022-12-31T01:18:56.845Z,78.99
2022-12-31T01:19:56.817Z,78.93
2022-12-31T01:20:56.816Z,78.90
2022-12-31T01:21:56.796Z,78.84
2022-12-31T01:22:56.772Z,78.84
2022-12-31T01:23:56.786Z,78.85
2022-12-31T01:24:56.756Z,78.83
2022-12-31T01:25:56.776Z,78.69
2022-12-31T01:26:56.743Z,78.86
2022-12-31T01:27:56.731Z,78.83
2022-12-31T01:28:56.753Z,78.87
2022-12-31T01:29:56.710Z,78.85
2022-12-31T01:30:56.771Z,78.90
2022-12-31T01:31:56.698Z,78.99
2022-12-31T01:32:56.676Z,78.94
2022-12-31T01:33:56.667Z,78.90
2022-12-31T01:34:56.668Z,78.88
2022-12-31T01:35:56.658Z,78.86
2022-12-31T01:36:56.655Z,78.91
2022-12-31T01:37:56.636Z,78.89
2022-12-31T01:38:56.606Z,78.91
2022-12-31T01:39:56.616Z,78.81
2022-12-31T01:40:56.606Z,78.81
2022-12-31T01:41:56.577Z,78.84
2022-12-31T01:42:56.559Z,78.82
2022-12-31T01:43:56.555Z,78.83
2022-12-31T01:44:56.549Z,78.85
2022-12-31T01:45:56.620Z,78.94
2022-12-31T01:46:56.547Z,78.98
2022-12-31T01:47:56.522Z,79.07
2022-12-31T01:48:56.519Z,79.07
2022-12-31T01:49:56.495Z,78.99
2022-12-31T01:50:56.492Z,78.96
2022-12-31T01:51:56.483Z,78.94
2022-12-31T01:52:56.465Z,78.92
2022-12-31T01:53:56.445Z,78.85
2022-12-31T01:54:56.427Z,78.80
2022-12-31T01:55:56.428Z,78.75
2022-12-31T01:56:56.451Z,78.85
2022-12-31T01:57:56.393Z,78.87
2022-12-31T01:58:56.389Z,78.97
2022-12-31T01:59:56.388Z,79.03
2022-12-31T02:00:56.459Z,79.08
2022-12-31T02:01:56.454Z,79.15
2022-12-31T02:02:56.392Z,79.21
2022-12-31T02:03:56.337Z,79.27
2022-12-31T02:04:56.318Z,79.37
2022-12-31T02:05:56.352Z,79.40
2022-12-31T02:06:56.321Z,79.33
2022-12-31T02:07:56.310Z,79.22
2022-12-31T02:08:56.286Z,79.29
2022-12-31T02:09:56.269Z,79.23
2022-12-31T02:10:56.265Z,79.19
2022-12-31T02:11:56.275Z,79.36
2022-12-31T02:12:56.236Z,79.33
2022-12-31T02:13:58.619Z,79.38
2022-12-31T02:14:56.219Z,79.34
2022-12-31T02:15:56.231Z,79.37
2022-12-31T02:16:56.229Z,79.30
2022-12-31T02:17:56.190Z,79.25
2022-12-31T02:18:56.177Z,79.38
2022-12-31T02:19:56.157Z,79.38
2022-12-31T02:20:56.146Z,79.33
2022-12-31T02:21:56.144Z,79.33
2022-12-31T02:22:56.137Z,79.30
2022-12-31T02:23:56.117Z,79.19
2022-12-31T02:24:56.107Z,79.27
2022-12-31T02:25:56.108Z,79.25
2022-12-31T02:26:56.098Z,79.28
2022-12-31T02:27:56.066Z,79.30
2022-12-31T02:28:56.088Z,79.41
2022-12-31T02:29:56.052Z,79.47
2022-12-31T02:30:56.097Z,79.52
2022-12-31T02:31:56.041Z,79.41
2022-12-31T02:32:56.023Z,79.46
2022-12-31T02:33:56.006Z,79.45
2022-12-31T02:34:55.999Z,79.44
2022-12-31T02:35:55.982Z,79.42
2022-12-31T02:36:55.995Z,79.30
2022-12-31T02:37:55.990Z,79.30
2022-12-31T02:38:55.948Z,79.28
2022-12-31T02:39:55.958Z,79.19
2022-12-31T02:40:55.937Z,79.18
2022-12-31T02:41:55.918Z,79.19
2022-12-31T02:42:55.997Z,79.18
2022-12-31T02:43:55.909Z,79.19
2022-12-31T02:44:55.919Z,79.26
2022-12-31T02:45:55.904Z,79.26
2022-12-31T02:46:55.889Z,79.32
2022-12-31T02:47:55.933Z,79.18
2022-12-31T02:48:55.839Z,79.21
2022-12-31T02:49:55.913Z,79.30
2022-12-31T02:50:55.865Z,79.36
2022-12-31T02:51:55.813Z,79.39
2022-12-31T02:52:55.814Z,79.34
2022-12-31T02:53:55.784Z,79.34
2022-12-31T02:54:55.780Z,79.34
2022-12-31T02:55:55.760Z,79.33
2022-12-31T02:56:55.762Z,79.40
2022-12-31T02:57:55.787Z,79.32
2022-12-31T02:58:55.738Z,79.30
2022-12-31T02:59:55.722Z,79.23
2022-12-31T03:00:55.905Z,79.30
2022-12-31T03:01:55.810Z,79.30
2022-12-31T03:02:55.779Z,79.38
2022-12-31T03:03:55.674Z,79.29
2022-12-31T03:04:55.660Z,79.24
2022-12-31T03:05:55.664Z,79.21
2022-12-31T03:06:55.666Z,79.15
2022-12-31T03:07:55.641Z,79.18
2022-12-31T03:08:55.630Z,79.18
2022-12-31T03:09:55.610Z,79.21
2022-12-31T03:10:55.596Z,79.17
2022-12-31T03:11:55.590Z,79.21
2022-12-31T03:12:55.594Z,79.23
2022-12-31T03:13:55.570Z,79.31
2022-12-31T03:14:55.553Z,79.25
2022-12-31T03:15:55.635Z,79.26
2022-12-31T03:16:55.534Z,79.32
2022-12-31T03:17:55.548Z,79.22
2022-12-31T03:18:55.532Z,79.10
2022-12-31T03:19:55.519Z,79.10
2022-12-31T03:20:55.508Z,78.98
2022-12-31T03:21:55.492Z,79.01
2022-12-31T03:22:55.496Z,78.96
2022-12-31T03:23:55.476Z,79.00
2022-12-31T03:24:55.446Z,78.98
2022-12-31T03:25:55.446Z,79.02
2022-12-31T03:26:55.425Z,79.03
2022-12-31T03:27:55.426Z,78.97
2022-12-31T03:28:55.418Z,79.07
2022-12-31T03:29:55.396Z,79.20
2022-12-31T03:30:55.386Z,79.21
2022-12-31T03:31:55.392Z,79.28
2022-12-31T03:32:55.359Z,79.27
2022-12-31T03:33:55.365Z,79.33
2022-12-31T03:34:55.335Z,79.41
2022-12-31T03:35:55.328Z,79.36
2022-12-31T03:36:55.344Z,79.25
2022-12-31T03:37:55.315Z,79.27
2022-12-31T03:38:55.322Z,79.38
2022-12-31T03:39:55.299Z,79.47
2022-12-31T03:40:55.274Z,79.38
2022-12-31T03:41:55.283Z,79.42
2022-12-31T03:42:55.264Z,79.42
2022-12-31T03:43:55.274Z,79.45
2022-12-31T03:44:55.229Z,79.54
2022-12-31T03:45:55.269Z,79.46
2022-12-31T03:46:55.202Z,79.28
2022-12-31T03:47:55.206Z,79.42
2022-12-31T03:48:55.213Z,79.45
2022-12-31T03:49:55.180Z,79.47
2022-12-31T03:50:55.166Z,79.55
2022-12-31T03:51:55.157Z,79.53
2022-12-31T03:52:55.147Z,79.47
2022-12-31T03:53:55.130Z,79.40
2022-12-31T03:54:55.144Z,79.41
2022-12-31T03:55:55.116Z,79.41
2022-12-31T03:56:59.902Z,79.29
2022-12-31T03:57:56.105Z,79.33
2022-12-31T03:58:55.075Z,79.37
2022-12-31T03:59:55.080Z,79.38
2022-12-31T04:00:55.116Z,79.29
2022-12-31T04:01:55.199Z,79.13
2022-12-31T04:02:55.076Z,79.03
2022-12-31T04:03:55.035Z,78.92
2022-12-31T04:04:55.040Z,78.94
2022-12-31T04:05:55.033Z,78.86
2022-12-31T04:06:54.994Z,78.85
2022-12-31T04:07:55.015Z,78.82
2022-12-31T04:08:54.968Z,78.74
2022-12-31T04:09:54.977Z,78.65
2022-12-31T04:10:54.954Z,78.58
2022-12-31T04:11:54.936Z,78.52
2022-12-31T04:12:54.935Z,78.56
2022-12-31T04:13:54.928Z,78.55
2022-12-31T04:14:54.902Z,78.44
2022-12-31T04:15:54.886Z,78.31
2022-12-31T04:16:54.878Z,78.25
2022-12-31T04:17:54.881Z,78.24
2022-12-31T04:18:54.879Z,78.28
2022-12-31T04:19:54.878Z,78.33
2022-12-31T04:20:54.841Z,78.47
2022-12-31T04:21:54.829Z,78.36
2022-12-31T04:22:54.826Z,78.24
2022-12-31T04:23:54.818Z,78.16
2022-12-31T04:24:54.813Z,78.12
2022-12-31T04:25:54.786Z,78.13
2022-12-31T04:26:54.780Z,78.12
2022-12-31T04:27:54.777Z,78.08
2022-12-31T04:28:54.791Z,78.12
2022-12-31T04:29:54.741Z,78.17
2022-12-31T04:30:54.727Z,78.20
2022-12-31T04:31:54.741Z,78.20
2022-12-31T04:32:54.705Z,78.24
2022-12-31T04:33:54.714Z,78.22
2022-12-31T04:34:54.735Z,78.18
2022-12-31T04:35:54.666Z,78.14
2022-12-31T04:36:54.708Z,78.10
2022-12-31T04:37:54.655Z,78.08
2022-12-31T04:38:54.650Z,78.05
2022-12-31T04:39:56.944Z,78.05
2022-12-31T04:40:55.634Z,77.97
2022-12-31T04:41:54.613Z,78.01
2022-12-31T04:42:54.598Z,78.04
2022-12-31T04:43:54.586Z,78.07
2022-12-31T04:44:54.588Z,78.01
2022-12-31T04:45:54.649Z,78.01
2022-12-31T04:46:54.558Z,77.98
2022-12-31T04:47:54.540Z,78.00
2022-12-31T04:48:54.525Z,77.93
2022-12-31T04:49:54.569Z,77.92
2022-12-31T04:50:54.505Z,77.91
2022-12-31T04:51:54.520Z,77.88
2022-12-31T04:52:54.494Z,77.89
2022-12-31T04:53:54.499Z,77.88
2022-12-31T04:54:54.490Z,77.87
2022-12-31T04:55:54.457Z,77.82
2022-12-31T04:56:54.467Z,77.94
2022-12-31T04:57:54.451Z,78.00
2022-12-31T04:58:54.435Z,77.98
2022-12-31T04:59:54.434Z,77.93
2022-12-31T05:00:54.490Z,77.91
2022-12-31T05:01:54.497Z,77.90
2022-12-31T05:02:54.414Z,77.85
2022-12-31T05:03:54.367Z,77.85
2022-12-31T05:04:54.382Z,77.85
2022-12-31T05:05:54.347Z,77.81
2022-12-31T05:06:54.341Z,77.80
2022-12-31T05:07:54.320Z,77.80
2022-12-31T05:08:54.325Z,77.78
2022-12-31T05:09:54.314Z,77.78
2022-12-31T05:10:54.293Z,77.72
2022-12-31T05:11:54.296Z,77.70
2022-12-31T05:12:54.270Z,77.64
2022-12-31T05:13:54.260Z,77.59
2022-12-31T05:14:54.264Z,77.53
2022-12-31T05:15:54.241Z,77.56
2022-12-31T05:16:54.256Z,77.57
2022-12-31T05:17:54.230Z,77.47
2022-12-31T05:18:54.207Z,77.44
2022-12-31T05:19:54.210Z,77.43
2022-12-31T05:20:54.183Z,77.45
2022-12-31T05:21:54.174Z,77.43
2022-12-31T05:22:54.162Z,77.44
2022-12-31T05:23:54.150Z,77.39
2022-12-31T05:24:54.156Z,77.31
2022-12-31T05:25:54.130Z,77.21
2022-12-31T05:26:54.118Z,77.21
2022-12-31T05:27:54.105Z,77.28
2022-12-31T05:28:54.105Z,77.22
2022-12-31T05:29:54.103Z,77.32
2022-12-31T05:30:54.122Z,77.25
2022-12-31T05:31:54.078Z,77.19
2022-12-31T05:32:54.056Z,77.19
2022-12-31T05:33:54.049Z,77.08
2022-12-31T05:34:54.058Z,76.91
2022-12-31T05:35:54.025Z,76.71
2022-12-31T05:36:54.007Z,76.63
2022-12-31T05:37:53.995Z,76.64
2022-12-31T05:38:53.978Z,76.61
2022-12-31T05:39:53.997Z,76.59
2022-12-31T05:40:53.966Z,76.59
2022-12-31T05:41:53.960Z,76.64
2022-12-31T05:42:53.940Z,76.65
2022-12-31T05:43:53.924Z,76.68
2022-12-31T05:44:53.936Z,76.69
2022-12-31T05:45:53.920Z,76.67
2022-12-31T05:46:53.898Z,76.58
2022-12-31T05:47:53.885Z,76.59
2022-12-31T05:48:53.881Z,76.58
2022-12-31T05:49:53.881Z,76.54
2022-12-31T05:50:53.867Z,76.58
2022-12-31T05:51:53.838Z,76.66
2022-12-31T05:52:53.832Z,76.65
2022-12-31T05:53:53.834Z,76.63
2022-12-31T05:54:53.832Z,76.65
2022-12-31T05:55:53.796Z,76.69
2022-12-31T05:56:53.791Z,76.65
2022-12-31T05:57:53.779Z,76.60
2022-12-31T05:58:53.776Z,76.51
2022-12-31T05:59:53.783Z,76.41
2022-12-31T06:00:53.743Z,76.36
2022-12-31T06:01:53.732Z,76.36
2022-12-31T06:02:53.791Z,76.30
2022-12-31T06:03:53.762Z,76.22
2022-12-31T06:04:53.707Z,76.23
2022-12-31T06:05:53.737Z,76.26
2022-12-31T06:06:53.678Z,76.31
2022-12-31T06:07:53.666Z,76.28
2022-12-31T06:08:53.661Z,76.29
2022-12-31T06:09:53.684Z,76.33
2022-12-31T06:10:53.650Z,76.32
2022-12-31T06:11:53.625Z,76.37
2022-12-31T06:12:53.639Z,76.35
2022-12-31T06:13:53.606Z,76.33
2022-12-31T06:14:53.596Z,76.35
2022-12-31T06:15:53.604Z,76.39
2022-12-31T06:16:53.575Z,76.41
2022-12-31T06:17:53.567Z,76.34
2022-12-31T06:18:53.546Z,76.31
2022-12-31T06:19:53.539Z,76.33
2022-12-31T06:20:53.535Z,76.31
2022-12-31T06:21:53.529Z,76.28
2022-12-31T06:22:53.509Z,76.25
2022-12-31T06:23:53.501Z,76.24
2022-12-31T06:24:53.485Z,76.20
2022-12-31T06:25:53.477Z,76.23
2022-12-31T06:26:53.482Z,76.17
2022-12-31T06:27:53.451Z,76.13
2022-12-31T06:28:53.437Z,76.11
2022-12-31T06:29:53.429Z,76.15
2022-12-31T06:31:00.013Z,76.19
2022-12-31T06:31:53.427Z,76.21
2022-12-31T06:32:53.396Z,76.21
2022-12-31T06:33:53.394Z,76.23
2022-12-31T06:34:53.375Z,76.24
2022-12-31T06:35:53.366Z,76.20
2022-12-31T06:36:53.416Z,76.17
2022-12-31T06:37:53.355Z,76.10
2022-12-31T06:38:53.355Z,76.08
2022-12-31T06:39:53.331Z,76.01
2022-12-31T06:40:53.322Z,76.06
2022-12-31T06:41:53.341Z,76.08
2022-12-31T06:42:59.533Z,76.09
2022-12-31T06:43:54.270Z,76.09
2022-12-31T06:44:53.259Z,76.08
2022-12-31T06:45:53.262Z,76.09
2022-12-31T06:46:53.440Z,76.05
2022-12-31T06:47:53.235Z,76.00
2022-12-31T06:48:53.220Z,75.92
2022-12-31T06:49:53.267Z,75.85
2022-12-31T06:50:53.214Z,75.84
2022-12-31T06:51:53.185Z,75.76
2022-12-31T06:52:53.195Z,75.70
2022-12-31T06:53:53.187Z,75.69
2022-12-31T06:54:53.163Z,75.70
2022-12-31T06:55:53.153Z,75.62
2022-12-31T06:56:53.131Z,75.54
2022-12-31T06:57:53.146Z,75.51
2022-12-31T06:58:53.115Z,75.51
2022-12-31T06:59:53.106Z,75.47
2022-12-31T07:00:53.090Z,75.48
2022-12-31T07:01:53.206Z,75.49
2022-12-31T07:02:53.106Z,75.51
2022-12-31T07:03:53.070Z,75.49
2022-12-31T07:04:53.049Z,75.46
2022-12-31T07:05:53.056Z,75.42
2022-12-31T07:06:53.038Z,75.36
2022-12-31T07:07:53.047Z,75.36
2022-12-31T07:08:53.002Z,75.38
2022-12-31T07:09:53.039Z,75.40
2022-12-31T07:10:52.990Z,75.42
2022-12-31T07:11:52.991Z,75.41
2022-12-31T07:12:52.975Z,75.42
2022-12-31T07:13:52.947Z,75.45
2022-12-31T07:14:52.973Z,75.47
2022-12-31T07:15:52.968Z,75.45
2022-12-31T07:16:52.942Z,75.42
2022-12-31T07:17:52.937Z,75.43
2022-12-31T07:18:52.897Z,75.44
2022-12-31T07:19:57.506Z,75.43
2022-12-31T07:20:53.875Z,75.45
2022-12-31T07:21:52.907Z,75.46
2022-12-31T07:22:52.851Z,75.45
2022-12-31T07:23:52.852Z,75.40
2022-12-31T07:24:52.828Z,75.34
2022-12-31T07:25:52.819Z,75.31
2022-12-31T07:26:56.737Z,75.30
2022-12-31T07:27:52.811Z,75.26
2022-12-31T07:28:52.786Z,75.24
2022-12-31T07:29:52.793Z,75.24
2022-12-31T07:30:52.913Z,75.22
2022-12-31T07:31:52.756Z,75.22
2022-12-31T07:32:52.761Z,75.18
2022-12-31T07:33:52.725Z,75.15
2022-12-31T07:34:52.731Z,75.15
2022-12-31T07:35:52.709Z,75.04
2022-12-31T07:36:52.714Z,74.97
2022-12-31T07:37:52.749Z,74.85
2022-12-31T07:38:52.683Z,74.80
2022-12-31T07:39:52.670Z,74.75
2022-12-31T07:40:52.651Z,74.68
2022-12-31T07:41:52.645Z,74.53
2022-12-31T07:42:52.659Z,74.43
2022-12-31T07:43:55.320Z,74.40
2022-12-31T07:44:54.447Z,74.37
2022-12-31T07:45:55.605Z,74.39
2022-12-31T07:46:52.620Z,74.38
2022-12-31T07:47:55.300Z,74.36
2022-12-31T07:48:53.567Z,74.38
2022-12-31T07:49:52.554Z,74.38
2022-12-31T07:51:15.580Z,74.38
2022-12-31T07:51:52.557Z,74.36
2022-12-31T07:52:52.560Z,74.31
2022-12-31T07:53:52.539Z,74.30
2022-12-31T07:54:52.517Z,74.33
2022-12-31T07:55:52.500Z,74.23
2022-12-31T07:56:52.496Z,74.16
2022-12-31T07:57:52.482Z,74.14
2022-12-31T07:58:52.487Z,74.15
2022-12-31T07:59:52.455Z,74.02
2022-12-31T08:00:52.461Z,73.94
2022-12-31T08:01:52.684Z,73.91
2022-12-31T08:02:52.449Z,73.91
2022-12-31T08:03:52.461Z,73.88
2022-12-31T08:04:52.399Z,73.88
2022-12-31T08:05:52.384Z,73.81
2022-12-31T08:06:52.386Z,73.75
2022-12-31T08:07:52.366Z,73.70
2022-12-31T08:08:52.369Z,73.71
2022-12-31T08:09:52.341Z,73.68
2022-12-31T08:10:52.331Z,73.64
2022-12-31T08:11:52.315Z,73.62
2022-12-31T08:12:52.300Z,73.61
2022-12-31T08:13:52.322Z,73.58
2022-12-31T08:14:52.296Z,73.55
2022-12-31T08:15:52.363Z,73.56
2022-12-31T08:16:52.278Z,73.46
2022-12-31T08:17:52.249Z,73.42
2022-12-31T08:18:52.242Z,73.45
2022-12-31T08:19:52.234Z,73.46
2022-12-31T08:20:52.217Z,73.47
2022-12-31T08:21:52.223Z,73.47
2022-12-31T08:22:52.206Z,73.53
2022-12-31T08:23:52.198Z,73.52
2022-12-31T08:24:52.170Z,73.53
2022-12-31T08:25:52.254Z,73.55
2022-12-31T08:26:53.357Z,73.53
2022-12-31T08:27:52.142Z,73.50
2022-12-31T08:28:52.156Z,73.48
2022-12-31T08:29:52.133Z,73.44
2022-12-31T08:30:52.106Z,73.47
2022-12-31T08:31:52.201Z,73.45
2022-12-31T08:32:52.086Z,73.47
2022-12-31T08:33:52.124Z,73.47
2022-12-31T08:34:52.063Z,73.49
2022-12-31T08:35:52.056Z,73.47
2022-12-31T08:36:52.049Z,73.44
2022-12-31T08:37:52.031Z,73.41
2022-12-31T08:38:52.023Z,73.43
2022-12-31T08:39:52.045Z,73.49
2022-12-31T08:40:52.012Z,73.49
2022-12-31T08:41:52.001Z,73.48
2022-12-31T08:42:51.979Z,73.47
2022-12-31T08:43:51.986Z,73.48
2022-12-31T08:44:52.006Z,73.51
2022-12-31T08:45:52.025Z,73.53
2022-12-31T08:46:51.937Z,73.42
2022-12-31T08:47:56.467Z,73.35
2022-12-31T08:48:52.906Z,73.23
2022-12-31T08:49:51.926Z,73.22
2022-12-31T08:50:51.899Z,73.15
2022-12-31T08:51:51.882Z,73.07
2022-12-31T08:52:51.861Z,73.05
2022-12-31T08:53:51.861Z,72.95
2022-12-31T08:54:51.845Z,72.88
2022-12-31T08:55:51.850Z,72.88
2022-12-31T08:56:51.825Z,72.90
2022-12-31T08:57:51.821Z,72.96
2022-12-31T08:58:51.806Z,72.98
2022-12-31T08:59:51.818Z,73.02
2022-12-31T09:00:51.854Z,73.09
2022-12-31T09:01:51.934Z,73.11
2022-12-31T09:02:51.758Z,72.99
2022-12-31T09:03:51.799Z,72.99
2022-12-31T09:04:51.728Z,72.97
2022-12-31T09:05:51.743Z,72.97
2022-12-31T09:06:51.715Z,72.95
2022-12-31T09:07:51.703Z,72.92
2022-12-31T09:08:51.688Z,72.90
2022-12-31T09:09:51.702Z,72.90
2022-12-31T09:10:51.681Z,72.95
2022-12-31T09:11:51.659Z,73.00
2022-12-31T09:12:51.665Z,73.04
2022-12-31T09:13:51.665Z,73.01
2022-12-31T09:14:51.617Z,72.99
2022-12-31T09:15:51.611Z,72.99
2022-12-31T09:16:51.672Z,73.05
2022-12-31T09:17:51.587Z,73.04
2022-12-31T09:18:51.616Z,73.05
2022-12-31T09:19:51.581Z,72.99
2022-12-31T09:20:51.576Z,73.01
2022-12-31T09:21:51.557Z,72.95
2022-12-31T09:22:51.551Z,72.91
2022-12-31T09:23:52.902Z,72.93
2022-12-31T09:24:51.550Z,72.92
2022-12-31T09:25:51.519Z,72.90
2022-12-31T09:26:51.500Z,72.89
2022-12-31T09:27:51.502Z,72.85
2022-12-31T09:28:51.487Z,72.83
2022-12-31T09:29:51.484Z,72.84
2022-12-31T09:30:51.446Z,72.85
2022-12-31T09:31:51.561Z,72.92
2022-12-31T09:32:55.451Z,73.00
2022-12-31T09:33:52.414Z,73.01
2022-12-31T09:34:51.440Z,73.01
2022-12-31T09:35:51.446Z,73.07
2022-12-31T09:36:51.380Z,73.04
2022-12-31T09:37:51.375Z,73.05
2022-12-31T09:38:51.364Z,73.03
2022-12-31T09:39:51.367Z,73.05
2022-12-31T09:40:51.361Z,73.11
2022-12-31T09:41:51.340Z,73.19
2022-12-31T09:42:51.335Z,73.27
2022-12-31T09:43:54.554Z,73.32
2022-12-31T09:44:52.294Z,73.24
2022-12-31T09:45:51.338Z,73.21
2022-12-31T09:46:51.293Z,73.20
2022-12-31T09:47:51.318Z,73.19
2022-12-31T09:48:51.249Z,73.12
2022-12-31T09:49:51.234Z,74.62
2022-12-31T09:50:51.247Z,73.59
2022-12-31T09:51:51.209Z,73.30
2022-12-31T09:52:51.211Z,73.81
2022-12-31T09:53:51.193Z,73.91
2022-12-31T09:54:51.177Z,73.80
2022-12-31T09:55:51.240Z,73.67
2022-12-31T09:56:57.149Z,73.44
2022-12-31T09:57:52.169Z,73.10
2022-12-31T09:58:51.146Z,73.37
2022-12-31T09:59:51.129Z,74.09
2022-12-31T10:00:51.197Z,74.46
2022-12-31T10:01:51.257Z,73.93
2022-12-31T10:02:51.208Z,73.49
2022-12-31T10:03:51.089Z,73.08
2022-12-31T10:04:51.071Z,73.16
2022-12-31T10:05:51.059Z,73.11
2022-12-31T10:06:51.073Z,73.43
2022-12-31T10:07:53.550Z,73.50
2022-12-31T10:08:51.028Z,72.86
2022-12-31T10:09:51.046Z,72.58
2022-12-31T10:10:51.033Z,72.75
2022-12-31T10:11:51.004Z,72.80
2022-12-31T10:12:50.991Z,72.67
2022-12-31T10:13:51.015Z,72.30
2022-12-31T10:14:50.962Z,72.32
2022-12-31T10:15:50.975Z,72.16
2022-12-31T10:16:50.986Z,72.28
2022-12-31T10:17:50.942Z,72.12
2022-12-31T10:18:50.916Z,72.20
2022-12-31T10:19:50.925Z,72.19
2022-12-31T10:20:50.913Z,72.24
2022-12-31T10:21:50.903Z,72.43
2022-12-31T10:22:50.879Z,72.26
2022-12-31T10:23:50.866Z,72.28
2022-12-31T10:24:50.863Z,72.53
2022-12-31T10:25:51.050Z,72.43
2022-12-31T10:26:53.405Z,72.31
2022-12-31T10:27:50.834Z,72.28
2022-12-31T10:28:50.821Z,72.33
2022-12-31T10:29:50.803Z,72.19
2022-12-31T10:30:50.881Z,72.42
2022-12-31T10:31:50.819Z,72.43
2022-12-31T10:32:50.768Z,72.45
2022-12-31T10:33:50.749Z,72.71
2022-12-31T10:34:50.752Z,72.64
2022-12-31T10:35:50.748Z,72.12
2022-12-31T10:36:50.731Z,71.98
2022-12-31T10:37:50.714Z,71.93
2022-12-31T10:38:50.707Z,71.86
2022-12-31T10:39:50.694Z,71.88
2022-12-31T10:40:50.691Z,71.77
2022-12-31T10:41:50.706Z,71.71
2022-12-31T10:42:50.680Z,71.71
2022-12-31T10:43:50.643Z,71.70
2022-12-31T10:44:50.660Z,71.69
2022-12-31T10:45:50.678Z,71.60
2022-12-31T10:46:50.688Z,71.63
2022-12-31T10:47:50.615Z,71.54
2022-12-31T10:48:50.595Z,71.49
2022-12-31T10:49:50.585Z,71.45
2022-12-31T10:50:50.586Z,71.42
2022-12-31T10:51:50.558Z,71.39
2022-12-31T10:52:50.598Z,71.46
2022-12-31T10:53:50.546Z,71.42
2022-12-31T10:54:50.529Z,71.31
2022-12-31T10:55:50.513Z,71.37
2022-12-31T10:56:50.509Z,71.43
2022-12-31T10:57:50.518Z,71.43
2022-12-31T10:58:50.480Z,71.39
2022-12-31T10:59:50.476Z,71.38
2022-12-31T11:00:50.470Z,71.31
2022-12-31T11:01:50.650Z,71.27
2022-12-31T11:02:50.481Z,71.27
2022-12-31T11:03:50.419Z,71.23
2022-12-31T11:04:50.431Z,71.30
2022-12-31T11:05:50.399Z,71.32
2022-12-31T11:06:50.393Z,71.38
2022-12-31T11:07:50.397Z,71.34
2022-12-31T11:08:50.371Z,71.31
2022-12-31T11:09:50.363Z,71.32
2022-12-31T11:10:50.360Z,71.32
2022-12-31T11:11:50.356Z,71.26
2022-12-31T11:12:50.319Z,71.16
2022-12-31T11:13:50.318Z,71.16
2022-12-31T11:14:50.319Z,71.15
2022-12-31T11:15:50.608Z,71.12
2022-12-31T11:16:50.311Z,71.13
2022-12-31T11:17:50.295Z,71.18
2022-12-31T11:18:50.285Z,71.25
2022-12-31T11:19:50.260Z,71.30
2022-12-31T11:20:50.259Z,71.20
2022-12-31T11:21:50.241Z,71.14
2022-12-31T11:22:50.240Z,71.17
2022-12-31T11:23:50.209Z,71.10
2022-12-31T11:24:50.225Z,71.07
2022-12-31T11:25:50.179Z,71.02
2022-12-31T11:26:50.191Z,71.02
2022-12-31T11:27:50.219Z,71.02
2022-12-31T11:28:50.170Z,71.06
2022-12-31T11:29:50.151Z,71.04
2022-12-31T11:30:50.227Z,71.02
2022-12-31T11:31:50.126Z,71.00
2022-12-31T11:32:50.116Z,71.02
2022-12-31T11:33:50.556Z,71.02
2022-12-31T11:34:50.092Z,71.04
2022-12-31T11:35:50.073Z,71.06
2022-12-31T11:36:50.064Z,70.96
2022-12-31T11:37:50.069Z,70.97
2022-12-31T11:38:50.080Z,70.97
2022-12-31T11:39:50.047Z,70.91
2022-12-31T11:40:50.026Z,70.95
2022-12-31T11:41:50.023Z,70.77
2022-12-31T11:42:50.003Z,70.57
2022-12-31T11:43:49.987Z,70.55
2022-12-31T11:44:50.006Z,70.34
2022-12-31T11:45:50.810Z,70.15
2022-12-31T11:46:50.005Z,70.16
2022-12-31T11:48:28.404Z,70.18
2022-12-31T11:48:50.963Z,70.18
2022-12-31T11:49:49.929Z,70.15
2022-12-31T11:50:49.985Z,70.21
2022-12-31T11:51:50.796Z,70.23
2022-12-31T11:52:49.891Z,70.29
2022-12-31T11:53:49.949Z,70.22
2022-12-31T11:54:49.891Z,70.24
2022-12-31T11:55:49.865Z,70.22
2022-12-31T11:56:49.839Z,70.27
2022-12-31T11:57:49.841Z,70.22
2022-12-31T11:58:49.855Z,70.23
2022-12-31T11:59:49.825Z,70.24
2022-12-31T12:00:49.949Z,70.33
2022-12-31T12:01:49.794Z,70.38
2022-12-31T12:02:53.799Z,70.43
2022-12-31T12:03:52.187Z,70.48
2022-12-31T12:04:49.774Z,70.52
2022-12-31T12:05:49.749Z,70.57
2022-12-31T12:06:49.741Z,70.64
2022-12-31T12:07:49.727Z,70.73
2022-12-31T12:08:49.733Z,70.79
2022-12-31T12:09:49.737Z,70.83
2022-12-31T12:10:49.716Z,70.86
2022-12-31T12:11:49.678Z,70.83
2022-12-31T12:12:49.680Z,70.82
2022-12-31T12:13:49.670Z,70.75
2022-12-31T12:14:49.653Z,70.70
2022-12-31T12:15:49.694Z,70.72
2022-12-31T12:16:49.627Z,70.76
2022-12-31T12:17:49.674Z,70.81
2022-12-31T12:18:49.595Z,70.85
2022-12-31T12:19:49.591Z,70.87
2022-12-31T12:20:49.574Z,70.88
2022-12-31T12:21:49.588Z,70.90
2022-12-31T12:22:49.674Z,70.76
2022-12-31T12:23:49.546Z,70.74
2022-12-31T12:24:49.537Z,70.77
2022-12-31T12:25:49.528Z,70.87
2022-12-31T12:26:49.556Z,70.93
2022-12-31T12:27:49.510Z,70.96
2022-12-31T12:28:49.503Z,70.96
2022-12-31T12:29:49.498Z,70.96
2022-12-31T12:30:49.498Z,70.95
2022-12-31T12:31:49.641Z,70.96
2022-12-31T12:32:50.440Z,70.96
2022-12-31T12:33:49.457Z,70.91
2022-12-31T12:34:50.277Z,70.88
2022-12-31T12:35:49.417Z,70.82
2022-12-31T12:36:49.447Z,70.76
2022-12-31T12:37:49.418Z,70.70
2022-12-31T12:38:49.375Z,70.52
2022-12-31T12:39:49.379Z,70.34
2022-12-31T12:40:49.362Z,70.25
2022-12-31T12:41:49.362Z,70.08
2022-12-31T12:42:49.336Z,70.04
2022-12-31T12:43:49.349Z,70.07
2022-12-31T12:44:49.345Z,70.14
2022-12-31T12:45:52.409Z,70.26
2022-12-31T12:46:49.368Z,70.39
2022-12-31T12:47:49.292Z,70.37
2022-12-31T12:48:49.385Z,70.36
2022-12-31T12:49:49.274Z,70.19
2022-12-31T12:50:49.267Z,69.95
2022-12-31T12:51:49.259Z,69.85
2022-12-31T12:52:49.237Z,69.83